aviador You're here:

OIMN Decoded Metar

BOJNORD in IRAN
Report Time2017-08-18 04:00:00
UTC Time2017-08-18 04:57:20
Flight Rules vfr VFR
WindCalm
Visibility9999 m
Phenomena:N/A
Clouds:N/A
Expected CloudBase > 6,800 ft AGL from Temp-Dew spread
CeilingNone
Temp21°C (ISA +13)
Dew Point04°C (33% RH)
AAT19.7°C
QNH1017 hPa
Density Alt5,010 ft
Elevation3,524 ft
Report Wrong Elevation
Raw Report
METAR OIMN 180400Z 00000KT CAVOK 21/04 Q1017=

Extra information for OIMN:More info

Metar Taf Metar & Taf Last 4 Metars F.Rules Stats Wind Profile Meteogram Temp Stats Airport Information Weather charts Add Link Nearby VenuesMetar ALERT Operation Metar Decoded Social comments